Hildegaard — C6QU3 — position and weather

sailwx.info

Track history (hours):
 
Tides and Currents Weather Stations Pressure Air Temp Water Temp Dewpoint Dewpoint Depression Visibility Wind Speed Wind Dir Waves Ship Positions

Hildegaard

Last reported at 2014-Nov-25 22:32 UTC. Time now 2014-Nov-26 00:17 UTC.
Position N 50°37' W 001°04'.

Length 248 m; draft 8.6 m.

Type: Ship. MMSI: 308574000.

Date/timePositionNaut miles runAvg speedWind from/ knotsBaromVisibWave heightAir tempDewpointWater temp
2014-Nov-25 22:32N 50°37' W 001°04'0 0.0
2014-Nov-25 21:29N 50°37' W 001°04'0 0.0
2014-Nov-25 20:32N 50°37' W 001°04'0 0.2
2014-Nov-25 19:23N 50°37' W 001°04'0 0.1
2014-Nov-25 18:29N 50°37' W 001°04'0 0.0
2014-Nov-25 17:32N 50°37' W 001°04'0 0.0
2014-Nov-25 16:32N 50°37' W 001°04'0 0.0
2014-Nov-25 15:29N 50°37' W 001°04'0 0.0
2014-Nov-25 14:32N 50°37' W 001°04'0 0.0
2014-Nov-25 13:32N 50°37' W 001°04'0 0.0
2014-Nov-25 12:32N 50°37' W 001°04'0 0.2
2014-Nov-25 11:32N 50°37' W 001°04'0 0.1
2014-Nov-25 10:05N 50°37' W 001°04'0 0.2
2014-Nov-25 09:29N 50°37' W 001°04'0 0.0
2014-Nov-25 08:32N 50°37' W 001°04'0 0.0
2014-Nov-25 07:23N 50°37' W 001°04'0 0.3
2014-Nov-25 06:32N 50°37' W 001°04'0 0.0
2014-Nov-25 05:32N 50°37' W 001°04'0 0.0
2014-Nov-25 04:32N 50°37' W 001°04'0 0.0
2014-Nov-25 03:32N 50°37' W 001°04'0 0.0
2014-Nov-25 02:32N 50°37' W 001°04'0 0.0
2014-Nov-25 01:32N 50°37' W 001°04'0 0.0
2014-Nov-25 00:32N 50°37' W 001°04'0 0.2
2014-Nov-24 23:14N 50°37' W 001°04'0 0.0
2014-Nov-24 21:32N 50°37' W 001°04'0 0.1
2014-Nov-24 20:32N 50°37' W 001°04'0 0.0
2014-Nov-24 19:32N 50°37' W 001°04'0 0.3
2014-Nov-24 18:32N 50°37' W 001°04'0 0.0
2014-Nov-24 17:32N 50°37' W 001°04'0 0.0
2014-Nov-24 16:32N 50°37' W 001°04'0 0.0
2014-Nov-24 15:32N 50°37' W 001°04'0 0.0
2014-Nov-24 14:32N 50°37' W 001°04'0 0.0
2014-Nov-24 13:32N 50°37' W 001°04'0 0.0
2014-Nov-24 12:32N 50°37' W 001°04'0 0.2
2014-Nov-24 11:29N 50°37' W 001°04'0 0.1
2014-Nov-24 10:29N 50°37' W 001°04'0 0.0
2014-Nov-24 09:29N 50°37' W 001°04'0 0.0
2014-Nov-24 08:32N 50°37' W 001°04'0 0.0
2014-Nov-24 07:32N 50°37' W 001°04'0 0.0
2014-Nov-24 06:32N 50°37' W 001°04'0 0.2
2014-Nov-24 05:32N 50°37' W 001°04'0 0.1
2014-Nov-24 04:32N 50°37' W 001°04'0 0.0
2014-Nov-24 03:32N 50°37' W 001°04'0 0.0
2014-Nov-24 02:32N 50°37' W 001°04'0 0.0
2014-Nov-24 01:32N 50°37' W 001°04'0 0.0
2014-Nov-24 00:32N 50°37' W 001°04'0 0.1
2014-Nov-23 23:32N 50°37' W 001°04'0 0.2
2014-Nov-23 22:32N 50°37' W 001°04'0 0.0
2014-Nov-23 21:32N 50°37' W 001°04'0 0.0
2014-Nov-23 20:32N 50°37' W 001°04'0 0.0
2014-Nov-23 19:26N 50°37' W 001°04'0 0.0
2014-Nov-23 18:26N 50°37' W 001°04'0 0.2
2014-Nov-23 17:29N 50°37' W 001°04'0 0.2
2014-Nov-23 16:29N 50°37' W 001°04'0 0.0
2014-Nov-23 15:29N 50°37' W 001°04'0 0.0
2014-Nov-23 14:32N 50°37' W 001°04'0 0.0
2014-Nov-23 13:32N 50°37' W 001°04'0 0.0
2014-Nov-23 12:32N 50°37' W 001°04'0 0.1
2014-Nov-23 11:34N 50°37' W 001°04'0 0.2
2014-Nov-23 10:30N 50°37' W 001°04'2 1.6
2014-Nov-23 09:33N 50°37' W 001°02'7 7.3
2014-Nov-23 08:34N 50°30' W 001°08'17 7.8
2014-Nov-23 06:20N 50°18' W 001°27'293 6.2
2014-Nov-21 07:09N 45°49' W 004°24'37 7.6
2014-Nov-21 02:20N 45°15' W 004°05'9 7.5
2014-Nov-21 01:05N 45°06' W 004°00'  
2014-Nov-16 21:03N 43°34' W 003°03'4 7.7
2014-Nov-16 20:33N 43°34' W 003°08'7 6.9
2014-Nov-16 19:33N 43°37' W 003°17'9 8.2
2014-Nov-16 18:31N 43°40' W 003°28'8 1.9
2014-Nov-16 14:08N 43°38' W 003°17'3 4.5
2014-Nov-16 13:31N 43°38' W 003°13'2 2.1
2014-Nov-16 12:33N 43°36' W 003°11'2 2.4
2014-Nov-16 11:33N 43°34' W 003°09'4 3.7
2014-Nov-16 10:33N 43°31' W 003°07'5 5.1
2014-Nov-16 09:33N 43°26' W 003°06'2 2.1
2014-Nov-16 08:31N 43°24' W 003°05'0 0.0
2014-Nov-16 07:28N 43°24' W 003°05'0 0.0
2014-Nov-16 06:31N 43°24' W 003°05'0 0.0
2014-Nov-16 05:31N 43°24' W 003°05'0 0.0
2014-Nov-16 04:31N 43°24' W 003°05'0 0.1
2014-Nov-16 03:31N 43°24' W 003°05'0 0.0
2014-Nov-16 02:31N 43°24' W 003°05'0 0.2
2014-Nov-16 01:31N 43°24' W 003°05'1 1.5
2014-Nov-16 00:33N 43°24' W 003°07'0 0.2
2014-Nov-15 23:33N 43°24' W 003°07'9 8.5
2014-Nov-15 22:33N 43°31' W 003°13'  
Track history (hours):
 
Tides and Currents Weather Stations Pressure Air Temp Water Temp Dewpoint Dewpoint Depression Visibility Wind Speed Wind Dir Waves Ship Positions

Hildegaard

Last reported at 2014-Nov-25 22:32 UTC. Time now 2014-Nov-26 00:17 UTC.
Position N 50°37' W 001°04'.

Length 248 m; draft 8.6 m.

Type: Ship. MMSI: 308574000.

Date/timePositionNaut miles runAvg speedWind from/ knotsBaromVisibWave heightAir tempDewpointWater temp
2014-Nov-25 22:32N 50°37' W 001°04'0 0.0
2014-Nov-25 21:29N 50°37' W 001°04'0 0.0
2014-Nov-25 20:32N 50°37' W 001°04'0 0.2
2014-Nov-25 19:23N 50°37' W 001°04'0 0.1
2014-Nov-25 18:29N 50°37' W 001°04'0 0.0
2014-Nov-25 17:32N 50°37' W 001°04'0 0.0
2014-Nov-25 16:32N 50°37' W 001°04'0 0.0
2014-Nov-25 15:29N 50°37' W 001°04'0 0.0
2014-Nov-25 14:32N 50°37' W 001°04'0 0.0
2014-Nov-25 13:32N 50°37' W 001°04'0 0.0
2014-Nov-25 12:32N 50°37' W 001°04'0 0.2
2014-Nov-25 11:32N 50°37' W 001°04'0 0.1
2014-Nov-25 10:05N 50°37' W 001°04'0 0.2
2014-Nov-25 09:29N 50°37' W 001°04'0 0.0
2014-Nov-25 08:32N 50°37' W 001°04'0 0.0
2014-Nov-25 07:23N 50°37' W 001°04'0 0.3
2014-Nov-25 06:32N 50°37' W 001°04'0 0.0
2014-Nov-25 05:32N 50°37' W 001°04'0 0.0
2014-Nov-25 04:32N 50°37' W 001°04'0 0.0
2014-Nov-25 03:32N 50°37' W 001°04'0 0.0
2014-Nov-25 02:32N 50°37' W 001°04'0 0.0
2014-Nov-25 01:32N 50°37' W 001°04'0 0.0
2014-Nov-25 00:32N 50°37' W 001°04'0 0.2
2014-Nov-24 23:14N 50°37' W 001°04'0 0.0
2014-Nov-24 21:32N 50°37' W 001°04'0 0.1
2014-Nov-24 20:32N 50°37' W 001°04'0 0.0
2014-Nov-24 19:32N 50°37' W 001°04'0 0.3
2014-Nov-24 18:32N 50°37' W 001°04'0 0.0
2014-Nov-24 17:32N 50°37' W 001°04'0 0.0
2014-Nov-24 16:32N 50°37' W 001°04'0 0.0
2014-Nov-24 15:32N 50°37' W 001°04'0 0.0
2014-Nov-24 14:32N 50°37' W 001°04'0 0.0
2014-Nov-24 13:32N 50°37' W 001°04'0 0.0
2014-Nov-24 12:32N 50°37' W 001°04'0 0.2
2014-Nov-24 11:29N 50°37' W 001°04'0 0.1
2014-Nov-24 10:29N 50°37' W 001°04'0 0.0
2014-Nov-24 09:29N 50°37' W 001°04'0 0.0
2014-Nov-24 08:32N 50°37' W 001°04'0 0.0
2014-Nov-24 07:32N 50°37' W 001°04'0 0.0
2014-Nov-24 06:32N 50°37' W 001°04'0 0.2
2014-Nov-24 05:32N 50°37' W 001°04'0 0.1
2014-Nov-24 04:32N 50°37' W 001°04'0 0.0
2014-Nov-24 03:32N 50°37' W 001°04'0 0.0
2014-Nov-24 02:32N 50°37' W 001°04'0 0.0
2014-Nov-24 01:32N 50°37' W 001°04'0 0.0
2014-Nov-24 00:32N 50°37' W 001°04'0 0.1
2014-Nov-23 23:32N 50°37' W 001°04'0 0.2
2014-Nov-23 22:32N 50°37' W 001°04'0 0.0
2014-Nov-23 21:32N 50°37' W 001°04'0 0.0
2014-Nov-23 20:32N 50°37' W 001°04'0 0.0
2014-Nov-23 19:26N 50°37' W 001°04'0 0.0
2014-Nov-23 18:26N 50°37' W 001°04'0 0.2
2014-Nov-23 17:29N 50°37' W 001°04'0 0.2
2014-Nov-23 16:29N 50°37' W 001°04'0 0.0
2014-Nov-23 15:29N 50°37' W 001°04'0 0.0
2014-Nov-23 14:32N 50°37' W 001°04'0 0.0
2014-Nov-23 13:32N 50°37' W 001°04'0 0.0
2014-Nov-23 12:32N 50°37' W 001°04'0 0.1
2014-Nov-23 11:34N 50°37' W 001°04'0 0.2
2014-Nov-23 10:30N 50°37' W 001°04'2 1.6
2014-Nov-23 09:33N 50°37' W 001°02'7 7.3
2014-Nov-23 08:34N 50°30' W 001°08'17 7.8
2014-Nov-23 06:20N 50°18' W 001°27'293 6.2
2014-Nov-21 07:09N 45°49' W 004°24'37 7.6
2014-Nov-21 02:20N 45°15' W 004°05'9 7.5
2014-Nov-21 01:05N 45°06' W 004°00'  
2014-Nov-16 21:03N 43°34' W 003°03'4 7.7
2014-Nov-16 20:33N 43°34' W 003°08'7 6.9
2014-Nov-16 19:33N 43°37' W 003°17'9 8.2
2014-Nov-16 18:31N 43°40' W 003°28'8 1.9
2014-Nov-16 14:08N 43°38' W 003°17'3 4.5
2014-Nov-16 13:31N 43°38' W 003°13'2 2.1
2014-Nov-16 12:33N 43°36' W 003°11'2 2.4
2014-Nov-16 11:33N 43°34' W 003°09'4 3.7
2014-Nov-16 10:33N 43°31' W 003°07'5 5.1
2014-Nov-16 09:33N 43°26' W 003°06'2 2.1
2014-Nov-16 08:31N 43°24' W 003°05'0 0.0
2014-Nov-16 07:28N 43°24' W 003°05'0 0.0
2014-Nov-16 06:31N 43°24' W 003°05'0 0.0
2014-Nov-16 05:31N 43°24' W 003°05'0 0.0
2014-Nov-16 04:31N 43°24' W 003°05'0 0.1
2014-Nov-16 03:31N 43°24' W 003°05'0 0.0
2014-Nov-16 02:31N 43°24' W 003°05'0 0.2
2014-Nov-16 01:31N 43°24' W 003°05'1 1.5
2014-Nov-16 00:33N 43°24' W 003°07'0 0.2
2014-Nov-15 23:33N 43°24' W 003°07'9 8.5
2014-Nov-15 22:33N 43°31' W 003°13'  

Dump ship's entire track history